Grassy Sound, New Jersey
Current Conditions -  °F | °C
As of 11:35 AM on Saturday 22 Nov 2014 (Local Time) from KWWD Reporting Station
Clear Clear  
Wind Chill: 34°   Ceiling: Unl
Heat Index: 41°   Visibility: 10mi
Dew Point: 18°   Wind: 12mph
Humidity: 39%   Direction: 230°SW
Pressure: 30.46"   Gusts: NA
Location:  38.9808°N, 74.8281°W
Report Text: KWWD 221635Z AUTO 23010KT 10SM CLR 05/M08 A3046 RMK AO1
Loading
Personal Weather Stations






























Interactive Weather Map New forecast layout! Learn more

10-Day Weather Forecast

Advertisements
Track Severe Weather on mobile